Time;durP1;ratioP1;P1;durP2;ratioP2;P2;SDS_P1;SDS_P2;PMS_P1;PMS_P2;Temp;Humidity;BMP_temperature;BMP_pressure;BME280_temperature;BME280_humidity;BME280_pressure;Samples;Min_cycle;Max_cycle;Signal;HPM_P1;HPM_P2
2022/07/10 00:00:12;;;;;;;2.08;0.90;;;;;;;;;;5108962;28;20793;-46
2022/07/10 00:02:38;;;;;;;1.90;1.08;;;;;;;;;;5083715;28;20051;-42
2022/07/10 00:05:05;;;;;;;1.95;1.65;;;;;;;;;;5114800;27;20516;-41
2022/07/10 00:07:31;;;;;;;1.80;1.17;;;;;;;;;;5115136;27;20044;-44
2022/07/10 00:09:56;;;;;;;1.73;1.17;;;;;;;;;;5097381;28;20043;-40
2022/07/10 00:12:22;;;;;;;1.50;0.90;;;;;;;;;;5112471;27;20047;-43
2022/07/10 00:14:47;;;;;;;2.03;1.15;;;;;;;;;;5111781;27;20116;-42
2022/07/10 00:17:13;;;;;;;5.28;1.65;;;;;;;;;;5114112;27;20062;-41
2022/07/10 00:19:39;;;;;;;1.70;1.35;;;;;;;;;;5114106;27;20108;-43
2022/07/10 00:22:04;;;;;;;2.05;1.73;;;;;;;;;;5116997;27;20046;-42
2022/07/10 00:24:29;;;;;;;2.65;2.00;;;;;;;;;;5115902;27;20471;-41
2022/07/10 00:26:55;;;;;;;3.42;1.30;;;;;;;;;;5116793;27;20521;-42
2022/07/10 00:29:20;;;;;;;4.07;1.75;;;;;;;;;;5110441;27;20050;-42
2022/07/10 00:31:46;;;;;;;3.22;1.50;;;;;;;;;;5110899;27;20047;-41
2022/07/10 00:34:12;;;;;;;3.17;1.90;;;;;;;;;;5112930;27;20061;-43
2022/07/10 00:36:37;;;;;;;1.88;1.05;;;;;;;;;;5116338;28;20035;-42
2022/07/10 00:39:03;;;;;;;2.35;1.40;;;;;;;;;;5109627;27;20065;-43
2022/07/10 00:41:28;;;;;;;1.83;1.45;;;;;;;;;;5112533;27;20046;-43
2022/07/10 00:44:00;;;;;;;2.00;1.63;;;;;;;;;;5109097;27;20044;-45
2022/07/10 00:46:27;;;;;;;1.90;1.48;;;;;;;;;;5113639;28;20110;-41
2022/07/10 00:48:52;;;;;;;3.33;1.55;;;;;;;;;;5109645;27;20043;-46
2022/07/10 00:51:18;;;;;;;2.63;1.92;;;;;;;;;;5111174;27;20114;-42
2022/07/10 00:53:47;;;;;;;2.35;1.70;;;;;;;;;;5111749;28;20046;-44
2022/07/10 00:56:15;;;;;;;2.17;1.52;;;;;;;;;;5110008;27;20047;-45
2022/07/10 00:58:41;;;;;;;3.50;1.45;;;;;;;;;;5113387;27;20138;-41
2022/07/10 01:01:06;;;;;;;3.97;1.67;;;;;;;;;;5113204;27;20114;-44
2022/07/10 01:03:32;;;;;;;1.75;1.48;;;;;;;;;;5107996;27;20048;-40
2022/07/10 01:05:58;;;;;;;1.63;1.17;;;;;;;;;;5091329;27;20051;-44
2022/07/10 01:08:23;;;;;;;1.63;0.93;;;;;;;;;;5115415;28;20067;-41
2022/07/10 01:10:49;;;;;;;2.85;1.83;;;;;;;;;;5113931;27;20039;-44
2022/07/10 01:13:15;;;;;;;2.63;2.05;;;;;;;;;;5115459;27;20170;-43
2022/07/10 01:15:40;;;;;;;1.58;1.17;;;;;;;;;;5113266;27;20143;-43
2022/07/10 01:18:06;;;;;;;3.72;1.70;;;;;;;;;;5114029;27;20139;-40
2022/07/10 01:20:34;;;;;;;10.30;1.77;;;;;;;;;;5110445;27;20143;-43
2022/07/10 01:23:00;;;;;;;1.95;1.58;;;;;;;;;;5111969;27;20466;-44
2022/07/10 01:25:25;;;;;;;2.40;1.50;;;;;;;;;;5116073;27;20039;-43
2022/07/10 01:27:51;;;;;;;2.33;1.73;;;;;;;;;;5108672;27;20100;-42
2022/07/10 01:30:17;;;;;;;2.63;1.27;;;;;;;;;;5110420;27;20043;-44
2022/07/10 01:32:43;;;;;;;1.60;1.13;;;;;;;;;;5108962;27;20051;-41
2022/07/10 01:35:08;;;;;;;4.82;1.25;;;;;;;;;;5107641;28;20651;-47
2022/07/10 01:37:34;;;;;;;2.20;1.33;;;;;;;;;;5112494;28;20058;-43
2022/07/10 01:39:59;;;;;;;2.33;1.40;;;;;;;;;;5115058;27;20102;-43
2022/07/10 01:42:24;;;;;;;3.22;1.63;;;;;;;;;;5116136;27;20044;-44
2022/07/10 01:44:50;;;;;;;3.22;1.38;;;;;;;;;;5114394;27;20058;-41
2022/07/10 01:47:15;;;;;;;1.58;1.20;;;;;;;;;;5113967;27;20491;-47
2022/07/10 01:49:40;;;;;;;1.55;1.13;;;;;;;;;;5118751;27;20450;-42
2022/07/10 01:52:06;;;;;;;1.50;1.00;;;;;;;;;;5112188;27;20050;-41
2022/07/10 01:54:31;;;;;;;1.05;0.80;;;;;;;;;;5115356;27;20039;-40
2022/07/10 01:56:57;;;;;;;1.83;1.02;;;;;;;;;;5118240;27;20070;-45
2022/07/10 01:59:22;;;;;;;1.58;0.98;;;;;;;;;;5116054;27;20490;-41
2022/07/10 02:01:47;;;;;;;2.08;1.27;;;;;;;;;;5119516;28;20165;-41
2022/07/10 02:06:57;;;;;;;2.40;1.48;;;;;;;;;;5113671;27;20054;-43
2022/07/10 02:09:22;;;;;;;1.75;1.27;;;;;;;;;;5115604;27;20043;-41
2022/07/10 02:11:47;;;;;;;3.95;2.17;;;;;;;;;;5114003;27;20191;-42
2022/07/10 02:14:13;;;;;;;7.35;1.20;;;;;;;;;;5114103;28;20495;-42
2022/07/10 02:16:38;;;;;;;1.83;1.08;;;;;;;;;;5117537;27;20071;-42
2022/07/10 02:19:04;;;;;;;1.60;1.17;;;;;;;;;;5088808;28;20486;-43
2022/07/10 02:21:29;;;;;;;4.72;2.00;;;;;;;;;;5117537;27;20052;-43
2022/07/10 02:23:54;;;;;;;1.67;1.05;;;;;;;;;;5117271;27;20044;-46
2022/07/10 02:26:20;;;;;;;2.88;2.13;;;;;;;;;;5117060;27;20050;-43
2022/07/10 02:28:45;;;;;;;1.65;1.00;;;;;;;;;;5116222;27;20509;-42
2022/07/10 02:31:11;;;;;;;6.70;1.92;;;;;;;;;;5113046;28;20032;-40
2022/07/10 02:33:36;;;;;;;1.50;1.25;;;;;;;;;;5117161;27;20136;-42
2022/07/10 02:36:02;;;;;;;2.10;1.65;;;;;;;;;;5116758;27;20063;-41
2022/07/10 02:38:27;;;;;;;1.83;1.25;;;;;;;;;;5114679;27;20590;-41
2022/07/10 02:40:52;;;;;;;5.40;1.83;;;;;;;;;;5113329;27;20086;-45
2022/07/10 02:43:18;;;;;;;1.70;1.08;;;;;;;;;;5109333;27;20128;-43
2022/07/10 02:45:43;;;;;;;2.17;1.77;;;;;;;;;;5115285;27;20043;-42
2022/07/10 02:48:09;;;;;;;1.65;0.93;;;;;;;;;;5112334;27;20050;-43
2022/07/10 02:50:34;;;;;;;2.85;1.58;;;;;;;;;;5116744;27;20047;-41
2022/07/10 02:53:02;;;;;;;1.80;1.33;;;;;;;;;;5117323;27;20040;-41
2022/07/10 02:55:27;;;;;;;2.28;1.13;;;;;;;;;;5115996;27;20062;-45
2022/07/10 02:57:53;;;;;;;2.80;1.70;;;;;;;;;;5114683;27;20047;-41
2022/07/10 03:00:18;;;;;;;2.08;1.02;;;;;;;;;;5114172;27;20047;-41
2022/07/10 03:02:43;;;;;;;3.53;2.03;;;;;;;;;;5116794;27;21009;-44
2022/07/10 03:05:09;;;;;;;2.95;1.65;;;;;;;;;;5114941;27;20043;-44
2022/07/10 03:07:34;;;;;;;1.20;0.95;;;;;;;;;;5114855;27;20039;-42
2022/07/10 03:09:59;;;;;;;1.83;0.82;;;;;;;;;;5109584;28;20036;-43
2022/07/10 03:12:25;;;;;;;3.28;1.65;;;;;;;;;;5114123;28;20130;-42
2022/07/10 03:14:50;;;;;;;2.58;1.25;;;;;;;;;;5114120;27;20069;-42
2022/07/10 03:17:15;;;;;;;5.80;2.08;;;;;;;;;;5114879;27;20060;-41
2022/07/10 03:19:41;;;;;;;1.23;0.60;;;;;;;;;;5113504;27;20126;-40
2022/07/10 03:22:06;;;;;;;2.42;1.40;;;;;;;;;;5113879;28;20053;-41
2022/07/10 03:24:31;;;;;;;2.72;2.05;;;;;;;;;;5116125;27;20060;-41
2022/07/10 03:26:57;;;;;;;1.58;1.02;;;;;;;;;;5089748;28;20058;-48
2022/07/10 03:29:22;;;;;;;1.25;1.05;;;;;;;;;;5114166;27;20130;-43
2022/07/10 03:31:47;;;;;;;1.52;1.13;;;;;;;;;;5110463;27;20047;-44
2022/07/10 03:34:13;;;;;;;2.50;1.52;;;;;;;;;;5111439;27;20115;-41
2022/07/10 03:36:39;;;;;;;1.42;1.17;;;;;;;;;;5113334;27;20055;-42
2022/07/10 03:39:04;;;;;;;2.95;1.55;;;;;;;;;;5116141;27;20130;-40
2022/07/10 03:41:30;;;;;;;1.63;1.52;;;;;;;;;;5114694;27;20042;-45
2022/07/10 03:43:55;;;;;;;2.50;1.33;;;;;;;;;;5114249;27;20123;-43
2022/07/10 03:46:20;;;;;;;1.55;1.40;;;;;;;;;;5113226;27;21446;-40
2022/07/10 03:48:46;;;;;;;4.78;1.13;;;;;;;;;;5112967;27;20043;-41
2022/07/10 03:51:11;;;;;;;2.25;1.60;;;;;;;;;;5115747;27;20035;-41
2022/07/10 03:53:37;;;;;;;2.53;1.80;;;;;;;;;;5112345;27;20047;-41
2022/07/10 03:56:03;;;;;;;1.40;1.23;;;;;;;;;;5108485;27;20042;-43
2022/07/10 03:58:28;;;;;;;1.30;0.82;;;;;;;;;;5111188;27;20040;-42
2022/07/10 04:00:54;;;;;;;2.10;1.13;;;;;;;;;;5112650;27;20060;-40
2022/07/10 04:03:19;;;;;;;1.92;1.40;;;;;;;;;;5082786;28;20512;-44
2022/07/10 04:05:44;;;;;;;2.33;1.45;;;;;;;;;;5113370;27;20050;-41
2022/07/10 04:08:10;;;;;;;3.95;1.30;;;;;;;;;;5117376;27;20082;-43
2022/07/10 04:10:36;;;;;;;4.45;1.10;;;;;;;;;;5112646;27;20036;-43
2022/07/10 04:13:01;;;;;;;2.97;1.15;;;;;;;;;;5113821;27;20520;-42
2022/07/10 04:15:27;;;;;;;4.22;1.67;;;;;;;;;;5117683;27;20055;-44
2022/07/10 04:17:52;;;;;;;2.65;1.70;;;;;;;;;;5111627;27;20039;-41
2022/07/10 04:20:18;;;;;;;2.47;1.00;;;;;;;;;;5112818;27;20052;-42
2022/07/10 04:22:43;;;;;;;2.92;1.42;;;;;;;;;;5108126;27;20117;-44
2022/07/10 04:25:11;;;;;;;2.75;1.55;;;;;;;;;;5111491;27;20109;-44
2022/07/10 04:27:36;;;;;;;4.95;1.60;;;;;;;;;;5113744;27;20050;-42
2022/07/10 04:30:02;;;;;;;1.92;1.05;;;;;;;;;;5110564;28;20047;-42
2022/07/10 04:32:28;;;;;;;1.38;0.88;;;;;;;;;;5112258;28;20046;-43
2022/07/10 04:34:53;;;;;;;2.38;0.98;;;;;;;;;;5107026;27;20521;-41
2022/07/10 04:37:19;;;;;;;2.67;1.88;;;;;;;;;;5110972;27;20313;-46
2022/07/10 04:39:44;;;;;;;3.38;1.25;;;;;;;;;;5114471;27;20592;-41
2022/07/10 04:42:09;;;;;;;1.73;1.02;;;;;;;;;;5111456;28;20487;-44
2022/07/10 04:44:36;;;;;;;1.60;1.00;;;;;;;;;;5113383;27;20039;-42
2022/07/10 04:47:01;;;;;;;2.03;1.30;;;;;;;;;;5113083;27;20055;-41
2022/07/10 04:49:27;;;;;;;4.82;1.45;;;;;;;;;;5111761;27;20058;-43
2022/07/10 04:51:52;;;;;;;2.55;1.40;;;;;;;;;;5111040;27;20217;-42
2022/07/10 04:54:18;;;;;;;1.77;1.30;;;;;;;;;;5111450;27;20200;-42
2022/07/10 04:56:43;;;;;;;1.40;0.88;;;;;;;;;;5112043;27;20039;-48
2022/07/10 04:59:09;;;;;;;1.23;1.05;;;;;;;;;;5114574;27;20047;-45
2022/07/10 05:01:35;;;;;;;3.40;1.05;;;;;;;;;;5110950;28;20048;-41
2022/07/10 05:04:00;;;;;;;2.03;1.42;;;;;;;;;;5113789;27;20054;-41
2022/07/10 05:06:25;;;;;;;2.78;1.17;;;;;;;;;;5112460;27;20100;-43
2022/07/10 05:08:51;;;;;;;5.43;1.02;;;;;;;;;;5115148;27;20478;-43
2022/07/10 05:11:16;;;;;;;1.92;0.98;;;;;;;;;;5111959;27;20075;-44
2022/07/10 05:13:45;;;;;;;1.98;1.35;;;;;;;;;;5113918;27;20138;-46
2022/07/10 05:16:10;;;;;;;1.35;1.17;;;;;;;;;;5114766;27;20043;-46
2022/07/10 05:18:35;;;;;;;1.80;0.98;;;;;;;;;;5113659;28;20070;-44
2022/07/10 05:21:01;;;;;;;1.30;1.10;;;;;;;;;;5116755;27;20126;-44
2022/07/10 05:23:26;;;;;;;1.40;1.08;;;;;;;;;;5117137;27;20039;-43
2022/07/10 05:25:52;;;;;;;6.97;1.95;;;;;;;;;;5100657;28;20954;-44
2022/07/10 05:28:17;;;;;;;1.20;0.95;;;;;;;;;;5111235;27;20043;-43
2022/07/10 05:30:42;;;;;;;2.47;0.98;;;;;;;;;;5112477;27;20044;-46
2022/07/10 05:33:08;;;;;;;1.58;1.30;;;;;;;;;;5113065;27;20079;-43
2022/07/10 05:35:33;;;;;;;4.32;1.90;;;;;;;;;;5109655;28;20054;-42
2022/07/10 05:37:59;;;;;;;5.18;1.40;;;;;;;;;;5112392;27;20097;-44
2022/07/10 05:40:24;;;;;;;2.35;1.70;;;;;;;;;;5106982;27;20059;-46
2022/07/10 05:42:50;;;;;;;2.40;1.27;;;;;;;;;;5114012;27;20031;-43
2022/07/10 05:45:16;;;;;;;2.25;1.45;;;;;;;;;;5112886;27;20618;-42
2022/07/10 05:47:41;;;;;;;2.17;0.95;;;;;;;;;;5113903;27;20039;-47
2022/07/10 05:50:08;;;;;;;2.55;1.40;;;;;;;;;;5113103;27;20047;-43
2022/07/10 05:52:33;;;;;;;3.42;2.10;;;;;;;;;;5112815;27;20043;-42
2022/07/10 05:54:59;;;;;;;4.10;1.30;;;;;;;;;;5115811;27;20039;-44
2022/07/10 05:57:24;;;;;;;2.38;1.40;;;;;;;;;;5113325;27;20109;-46
2022/07/10 05:59:50;;;;;;;1.60;1.48;;;;;;;;;;5114419;27;20080;-42
2022/07/10 06:02:16;;;;;;;1.77;1.58;;;;;;;;;;5115009;28;20082;-41
2022/07/10 06:04:41;;;;;;;2.20;2.00;;;;;;;;;;5110960;27;20372;-41
2022/07/10 06:07:06;;;;;;;1.92;1.10;;;;;;;;;;5116521;27;20040;-44
2022/07/10 06:09:32;;;;;;;1.75;1.52;;;;;;;;;;5112376;27;20065;-42
2022/07/10 06:11:57;;;;;;;2.83;1.92;;;;;;;;;;5115472;27;20392;-45
2022/07/10 06:14:22;;;;;;;2.80;1.85;;;;;;;;;;5114835;27;20051;-46
2022/07/10 06:16:48;;;;;;;2.10;1.25;;;;;;;;;;5115434;28;20478;-45
2022/07/10 06:19:13;;;;;;;2.20;1.85;;;;;;;;;;5112727;27;20069;-42
2022/07/10 06:21:38;;;;;;;3.30;1.52;;;;;;;;;;5115047;27;20485;-45
2022/07/10 06:24:04;;;;;;;3.42;1.83;;;;;;;;;;5117497;28;20451;-41
2022/07/10 06:26:29;;;;;;;2.92;1.88;;;;;;;;;;5115206;27;20079;-43
2022/07/10 06:28:54;;;;;;;3.58;2.50;;;;;;;;;;5113891;28;20047;-45
2022/07/10 06:31:20;;;;;;;3.55;2.53;;;;;;;;;;5112924;27;20046;-46
2022/07/10 06:33:45;;;;;;;2.80;2.13;;;;;;;;;;5115323;27;20038;-45
2022/07/10 06:36:12;;;;;;;5.43;1.45;;;;;;;;;;5112066;27;20499;-42
2022/07/10 06:38:37;;;;;;;16.23;5.40;;;;;;;;;;5119221;27;20047;-45
2022/07/10 06:41:03;;;;;;;4.82;3.33;;;;;;;;;;5115725;27;20082;-47
2022/07/10 06:43:28;;;;;;;4.03;2.15;;;;;;;;;;5114524;27;20035;-44
2022/07/10 06:45:54;;;;;;;2.53;1.70;;;;;;;;;;5117180;27;20525;-48
2022/07/10 06:48:20;;;;;;;3.20;2.08;;;;;;;;;;5114369;27;20048;-45
2022/07/10 06:50:45;;;;;;;8.43;2.72;;;;;;;;;;5116253;27;20219;-45
2022/07/10 06:53:15;;;;;;;2.60;1.30;;;;;;;;;;5115402;27;20054;-45
2022/07/10 06:55:40;;;;;;;3.17;2.60;;;;;;;;;;5113661;27;20050;-49
2022/07/10 06:58:05;;;;;;;3.00;1.75;;;;;;;;;;5116153;28;20052;-45
2022/07/10 07:00:31;;;;;;;9.20;3.13;;;;;;;;;;5117586;27;20131;-44
2022/07/10 07:02:56;;;;;;;7.85;2.33;;;;;;;;;;5117353;27;20051;-44
2022/07/10 07:05:21;;;;;;;2.35;1.27;;;;;;;;;;5115639;27;20043;-44
2022/07/10 07:07:47;;;;;;;4.07;1.95;;;;;;;;;;5115137;27;20039;-44
2022/07/10 07:10:12;;;;;;;4.50;2.10;;;;;;;;;;5112815;27;20181;-44
2022/07/10 07:12:38;;;;;;;2.42;1.70;;;;;;;;;;5115494;27;20407;-43
2022/07/10 07:15:04;;;;;;;2.63;1.52;;;;;;;;;;5116033;27;20053;-43
2022/07/10 07:17:45;;;;;;;6.78;1.90;;;;;;;;;;5113386;27;20047;-44
2022/07/10 07:25:41;;;;;;;2.72;1.85;;;;;;;;;;5115511;27;20042;-42
2022/07/10 07:28:07;;;;;;;6.90;2.88;;;;;;;;;;5112493;27;20498;-46
2022/07/10 07:30:32;;;;;;;2.25;1.02;;;;;;;;;;5111620;28;20062;-44
2022/07/10 07:32:58;;;;;;;2.95;1.35;;;;;;;;;;5111808;27;20495;-42
2022/07/10 07:35:23;;;;;;;2.00;1.05;;;;;;;;;;5116014;27;20035;-43
2022/07/10 07:37:49;;;;;;;1.98;1.58;;;;;;;;;;5114742;27;20049;-45
2022/07/10 07:40:15;;;;;;;4.95;2.13;;;;;;;;;;5112368;27;20568;-43
2022/07/10 07:42:41;;;;;;;12.23;1.98;;;;;;;;;;5109443;27;20130;-44
2022/07/10 07:45:07;;;;;;;14.07;2.40;;;;;;;;;;5111955;27;20126;-43
2022/07/10 07:47:42;;;;;;;2.47;1.52;;;;;;;;;;5114803;27;20058;-48
2022/07/10 07:50:08;;;;;;;2.28;1.08;;;;;;;;;;5111583;27;20621;-45
2022/07/10 07:52:35;;;;;;;2.42;0.90;;;;;;;;;;5108718;27;20190;-43
2022/07/10 07:55:00;;;;;;;4.47;2.03;;;;;;;;;;5111881;27;20632;-44
2022/07/10 07:57:28;;;;;;;1.83;1.15;;;;;;;;;;5109300;27;20035;-51
2022/07/10 07:59:53;;;;;;;3.50;2.72;;;;;;;;;;5110859;28;20442;-45
2022/07/10 08:02:19;;;;;;;2.08;1.27;;;;;;;;;;5115858;27;20046;-46
2022/07/10 08:04:44;;;;;;;1.67;1.20;;;;;;;;;;5114342;27;20076;-46
2022/07/10 08:07:09;;;;;;;8.30;4.10;;;;;;;;;;5111151;27;20050;-45
2022/07/10 08:09:35;;;;;;;7.38;3.50;;;;;;;;;;5110445;27;20038;-48
2022/07/10 08:12:00;;;;;;;14.63;4.13;;;;;;;;;;5113576;27;20066;-43
2022/07/10 08:14:26;;;;;;;7.43;4.05;;;;;;;;;;5113395;27;20043;-43
2022/07/10 08:16:51;;;;;;;5.18;2.15;;;;;;;;;;5112056;27;20039;-45
2022/07/10 08:19:16;;;;;;;5.97;2.42;;;;;;;;;;5112108;27;20051;-43
2022/07/10 08:21:43;;;;;;;17.27;1.48;;;;;;;;;;5111433;27;20595;-48
2022/07/10 08:24:08;;;;;;;1.77;1.00;;;;;;;;;;5111543;28;20139;-48
2022/07/10 08:26:34;;;;;;;2.25;1.20;;;;;;;;;;5108561;28;20541;-44
2022/07/10 08:28:59;;;;;;;2.20;1.02;;;;;;;;;;5110677;27;20477;-45
2022/07/10 08:31:24;;;;;;;1.65;0.90;;;;;;;;;;5111251;27;20042;-46
2022/07/10 08:33:51;;;;;;;1.40;0.80;;;;;;;;;;5113723;27;20051;-45
2022/07/10 08:36:16;;;;;;;2.03;0.77;;;;;;;;;;5114861;27;20541;-43
2022/07/10 08:38:41;;;;;;;0.68;0.50;;;;;;;;;;5111556;28;20089;-48
2022/07/10 08:41:07;;;;;;;2.03;1.02;;;;;;;;;;5111210;27;20109;-43
2022/07/10 08:43:32;;;;;;;1.25;0.77;;;;;;;;;;5111741;27;20027;-47
2022/07/10 08:45:58;;;;;;;1.60;0.30;;;;;;;;;;5111213;27;20047;-52
2022/07/10 08:48:24;;;;;;;0.55;0.50;;;;;;;;;;5110468;27;20074;-56
2022/07/10 08:50:53;;;;;;;4.68;0.85;;;;;;;;;;5110480;27;20467;-47
2022/07/10 08:53:45;;;;;;;1.50;0.65;;;;;;;;;;5106561;27;20051;-57
2022/07/10 08:56:10;;;;;;;1.38;0.80;;;;;;;;;;5104448;27;20130;-48
2022/07/10 08:58:36;;;;;;;2.92;1.55;;;;;;;;;;5112245;27;20521;-56
2022/07/10 09:01:01;;;;;;;6.38;2.17;;;;;;;;;;5111861;27;20058;-54
2022/07/10 09:03:27;;;;;;;4.15;1.77;;;;;;;;;;5111715;27;20039;-50
2022/07/10 09:05:52;;;;;;;8.80;2.30;;;;;;;;;;5111961;27;20436;-51
2022/07/10 09:08:21;;;;;;;7.97;1.25;;;;;;;;;;5110334;27;20468;-50
2022/07/10 09:10:46;;;;;;;2.42;0.68;;;;;;;;;;5106366;27;20067;-50
2022/07/10 09:13:12;;;;;;;2.45;1.02;;;;;;;;;;5101970;28;20078;-57
2022/07/10 09:15:37;;;;;;;10.90;1.42;;;;;;;;;;5110392;27;20050;-52
2022/07/10 09:18:05;;;;;;;0.95;0.60;;;;;;;;;;5110905;27;20095;-53
2022/07/10 09:20:30;;;;;;;8.85;1.75;;;;;;;;;;5112455;27;20123;-50
2022/07/10 09:23:08;;;;;;;2.40;1.00;;;;;;;;;;5111175;27;20040;-49
2022/07/10 09:25:34;;;;;;;4.82;1.25;;;;;;;;;;5108622;27;20066;-48
2022/07/10 09:28:05;;;;;;;3.83;1.33;;;;;;;;;;5114906;27;20654;-52
2022/07/10 09:30:37;;;;;;;1.90;1.00;;;;;;;;;;5108941;28;20035;-50
2022/07/10 09:33:19;;;;;;;4.75;0.77;;;;;;;;;;5112106;27;20042;-53
2022/07/10 09:36:10;;;;;;;2.22;0.93;;;;;;;;;;5108069;27;20035;-53
2022/07/10 09:38:48;;;;;;;1.13;0.65;;;;;;;;;;5108493;27;20450;-53
2022/07/10 09:41:14;;;;;;;1.42;1.00;;;;;;;;;;5111554;27;20044;-49
2022/07/10 09:44:09;;;;;;;0.57;0.57;;;;;;;;;;5111221;28;20116;-49
2022/07/10 09:46:39;;;;;;;1.95;1.13;;;;;;;;;;5111148;27;20031;-49
2022/07/10 09:49:04;;;;;;;5.67;1.37;;;;;;;;;;5109195;27;20042;-52
2022/07/10 09:51:33;;;;;;;1.42;0.77;;;;;;;;;;5112965;28;20047;-53
2022/07/10 09:54:00;;;;;;;1.45;1.00;;;;;;;;;;5107563;28;20463;-53
2022/07/10 09:56:26;;;;;;;1.35;0.57;;;;;;;;;;5113274;27;20050;-52
2022/07/10 09:58:52;;;;;;;2.58;0.82;;;;;;;;;;5113691;27;20222;-53
2022/07/10 10:01:18;;;;;;;1.73;1.30;;;;;;;;;;5110803;27;20511;-51
2022/07/10 10:03:44;;;;;;;1.08;0.57;;;;;;;;;;5108762;27;20079;-52
2022/07/10 10:06:16;;;;;;;2.92;1.33;;;;;;;;;;5110016;27;20630;-54
2022/07/10 10:08:59;;;;;;;0.57;0.50;;;;;;;;;;5112283;27;20090;-53
2022/07/10 10:11:26;;;;;;;0.95;0.77;;;;;;;;;;5112212;28;20042;-53
2022/07/10 10:13:52;;;;;;;2.53;0.55;;;;;;;;;;5110515;27;20495;-51
2022/07/10 10:16:19;;;;;;;1.65;0.82;;;;;;;;;;5114974;27;20101;-53
2022/07/10 10:21:37;;;;;;;2.33;1.03;;;;;;;;;;5114436;27;20066;-52
2022/07/10 10:24:02;;;;;;;1.08;0.60;;;;;;;;;;5115071;28;20341;-50
2022/07/10 10:26:28;;;;;;;2.28;0.93;;;;;;;;;;5092183;28;20488;-54
2022/07/10 10:28:56;;;;;;;3.55;1.27;;;;;;;;;;5112236;27;20075;-53
2022/07/10 10:31:24;;;;;;;1.15;0.77;;;;;;;;;;5112438;27;20049;-49
2022/07/10 10:33:53;;;;;;;1.15;0.88;;;;;;;;;;5114022;27;20095;-52
2022/07/10 10:36:44;;;;;;;0.97;0.70;;;;;;;;;;5111992;27;20131;-53
2022/07/10 10:39:36;;;;;;;1.10;0.77;;;;;;;;;;5114548;27;20043;-53
2022/07/10 10:42:08;;;;;;;7.00;1.67;;;;;;;;;;5114507;27;20107;-51
2022/07/10 10:44:36;;;;;;;1.38;1.08;;;;;;;;;;5112491;27;20495;-53
2022/07/10 10:47:06;;;;;;;0.90;0.68;;;;;;;;;;5114791;27;20078;-51
2022/07/10 10:49:49;;;;;;;1.52;1.00;;;;;;;;;;5114711;27;20079;-51
2022/07/10 10:52:15;;;;;;;1.05;0.70;;;;;;;;;;5110050;27;20130;-53
2022/07/10 10:54:56;;;;;;;2.72;1.20;;;;;;;;;;5115364;27;20444;-53
2022/07/10 10:57:21;;;;;;;1.40;0.90;;;;;;;;;;5113622;27;20043;-51
2022/07/10 10:59:55;;;;;;;1.23;0.73;;;;;;;;;;5115425;27;20426;-51
2022/07/10 11:02:21;;;;;;;1.98;0.90;;;;;;;;;;5114463;27;20709;-51
2022/07/10 11:04:49;;;;;;;1.13;0.82;;;;;;;;;;5109823;27;20043;-52
2022/07/10 11:07:34;;;;;;;1.67;1.08;;;;;;;;;;5115712;27;20883;-52
2022/07/10 11:10:23;;;;;;;0.70;0.50;;;;;;;;;;5116970;27;20051;-54
2022/07/10 11:12:59;;;;;;;2.05;0.93;;;;;;;;;;5096817;27;20050;-52
2022/07/10 11:15:25;;;;;;;5.40;1.42;;;;;;;;;;5114418;27;20075;-47
2022/07/10 11:17:50;;;;;;;6.60;1.58;;;;;;;;;;5113504;27;20120;-52
2022/07/10 11:20:16;;;;;;;0.90;0.60;;;;;;;;;;5112127;27;20054;-50
2022/07/10 11:22:51;;;;;;;1.10;0.80;;;;;;;;;;5113206;27;20043;-54
2022/07/10 11:25:38;;;;;;;3.38;1.48;;;;;;;;;;5109648;27;20058;-53
2022/07/10 11:28:04;;;;;;;1.15;0.55;;;;;;;;;;5110752;27;20966;-54
2022/07/10 11:30:42;;;;;;;1.23;0.60;;;;;;;;;;5112052;27;20050;-52
2022/07/10 11:33:08;;;;;;;2.10;1.25;;;;;;;;;;5112517;28;20039;-50
2022/07/10 11:35:33;;;;;;;3.78;0.70;;;;;;;;;;5113054;27;20196;-48
2022/07/10 11:37:59;;;;;;;1.33;1.00;;;;;;;;;;5115716;27;20043;-54
2022/07/10 11:40:24;;;;;;;2.17;1.50;;;;;;;;;;5115539;27;20055;-54
2022/07/10 11:42:53;;;;;;;1.63;0.88;;;;;;;;;;5113492;27;20035;-52
2022/07/10 11:45:22;;;;;;;1.75;0.82;;;;;;;;;;5110536;27;20118;-52
2022/07/10 11:47:48;;;;;;;0.93;0.50;;;;;;;;;;5089877;28;20035;-53
2022/07/10 11:50:13;;;;;;;1.95;1.00;;;;;;;;;;5092269;28;21815;-53
2022/07/10 11:52:38;;;;;;;1.23;0.90;;;;;;;;;;5109886;27;20046;-55
2022/07/10 11:55:16;;;;;;;7.40;1.42;;;;;;;;;;5112365;27;20582;-54
2022/07/10 11:57:44;;;;;;;1.48;0.95;;;;;;;;;;5108514;27;20047;-51
2022/07/10 12:00:30;;;;;;;1.98;0.85;;;;;;;;;;5110233;28;20415;-54
2022/07/10 12:02:56;;;;;;;7.72;1.50;;;;;;;;;;5110616;28;20139;-51
2022/07/10 12:05:31;;;;;;;2.67;1.10;;;;;;;;;;5114863;27;20035;-53
2022/07/10 12:07:56;;;;;;;1.15;0.73;;;;;;;;;;5113183;27;20373;-52
2022/07/10 12:10:25;;;;;;;1.45;1.00;;;;;;;;;;5114063;27;20502;-49
2022/07/10 12:12:50;;;;;;;0.45;0.28;;;;;;;;;;5114326;27;20100;-54
2022/07/10 12:15:32;;;;;;;5.57;1.45;;;;;;;;;;5113177;27;20761;-53
2022/07/10 12:17:57;;;;;;;1.05;0.80;;;;;;;;;;5113515;27;20035;-51
2022/07/10 12:20:23;;;;;;;0.52;0.32;;;;;;;;;;5114008;27;20139;-50
2022/07/10 12:22:48;;;;;;;3.28;1.38;;;;;;;;;;5113990;27;20047;-52
2022/07/10 12:25:14;;;;;;;1.33;0.60;;;;;;;;;;5113140;27;20043;-51
2022/07/10 12:27:40;;;;;;;1.17;0.80;;;;;;;;;;5109982;27;20035;-51
2022/07/10 12:30:05;;;;;;;1.58;0.90;;;;;;;;;;5111455;27;20067;-54
2022/07/10 12:32:31;;;;;;;2.35;0.82;;;;;;;;;;5116495;27;20499;-51
2022/07/10 12:34:58;;;;;;;2.55;1.27;;;;;;;;;;5086526;28;20160;-51
2022/07/10 12:37:24;;;;;;;1.23;0.95;;;;;;;;;;5113799;28;20131;-51
2022/07/10 12:39:52;;;;;;;3.45;1.10;;;;;;;;;;5115810;27;20119;-55
2022/07/10 12:42:28;;;;;;;1.80;1.02;;;;;;;;;;5113540;27;20146;-53
2022/07/10 12:44:53;;;;;;;3.28;1.35;;;;;;;;;;5116446;27;20483;-52
2022/07/10 12:47:22;;;;;;;0.75;0.57;;;;;;;;;;5113219;27;20063;-52
2022/07/10 12:49:48;;;;;;;0.60;0.35;;;;;;;;;;5113159;27;20069;-49
2022/07/10 12:52:26;;;;;;;1.10;0.85;;;;;;;;;;5109180;28;20064;-52
2022/07/10 12:55:10;;;;;;;2.53;1.40;;;;;;;;;;5114238;27;20098;-50
2022/07/10 12:57:45;;;;;;;3.45;1.00;;;;;;;;;;5109341;28;20067;-51
2022/07/10 13:00:13;;;;;;;1.00;0.65;;;;;;;;;;5110874;27;20043;-54
2022/07/10 13:02:38;;;;;;;1.55;0.68;;;;;;;;;;5112523;27;20116;-52
2022/07/10 13:05:04;;;;;;;1.90;0.85;;;;;;;;;;5110659;27;20387;-50
2022/07/10 13:07:33;;;;;;;3.22;1.88;;;;;;;;;;5115243;27;20511;-54
2022/07/10 13:09:59;;;;;;;1.10;0.60;;;;;;;;;;5110628;27;20036;-53
2022/07/10 13:12:24;;;;;;;2.03;1.00;;;;;;;;;;5113789;28;20384;-54
2022/07/10 13:14:49;;;;;;;0.93;0.50;;;;;;;;;;5107998;27;20049;-53
2022/07/10 13:17:15;;;;;;;1.00;0.90;;;;;;;;;;5113511;27;20115;-52
2022/07/10 13:19:40;;;;;;;0.98;0.80;;;;;;;;;;5110754;27;20043;-51
2022/07/10 13:22:05;;;;;;;2.10;0.95;;;;;;;;;;5109070;27;20090;-53
2022/07/10 13:24:30;;;;;;;2.42;0.80;;;;;;;;;;5112024;27;20129;-53
2022/07/10 13:26:56;;;;;;;2.17;0.80;;;;;;;;;;5112739;27;20123;-53
2022/07/10 13:29:22;;;;;;;2.95;1.25;;;;;;;;;;5111841;27;20040;-54
2022/07/10 13:31:47;;;;;;;1.77;1.00;;;;;;;;;;5095181;28;20032;-52
2022/07/10 13:34:13;;;;;;;1.98;0.60;;;;;;;;;;5115908;27;20127;-53
2022/07/10 13:36:38;;;;;;;3.38;1.20;;;;;;;;;;5114883;27;20643;-53
2022/07/10 13:39:03;;;;;;;1.67;0.80;;;;;;;;;;5114545;27;20054;-55
2022/07/10 13:41:28;;;;;;;1.65;0.80;;;;;;;;;;5112921;28;20043;-54
2022/07/10 13:43:54;;;;;;;0.98;0.60;;;;;;;;;;5113263;27;20391;-54
2022/07/10 13:46:19;;;;;;;6.13;1.02;;;;;;;;;;5114461;27;20052;-50
2022/07/10 13:48:44;;;;;;;1.05;0.88;;;;;;;;;;5109002;27;20039;-52
2022/07/10 13:51:10;;;;;;;1.55;0.60;;;;;;;;;;5112459;27;20521;-54
2022/07/10 13:53:35;;;;;;;0.93;0.43;;;;;;;;;;5114660;27;20651;-54
2022/07/10 13:56:01;;;;;;;0.95;0.65;;;;;;;;;;5095794;28;20559;-56
2022/07/10 13:58:26;;;;;;;13.52;1.63;;;;;;;;;;5111884;27;20492;-54
2022/07/10 14:00:51;;;;;;;1.70;0.88;;;;;;;;;;5111700;27;20038;-53
2022/07/10 14:03:17;;;;;;;0.90;0.45;;;;;;;;;;5113083;27;20529;-55
2022/07/10 14:05:42;;;;;;;0.88;0.57;;;;;;;;;;5115070;27;20051;-55
2022/07/10 14:08:07;;;;;;;3.80;0.73;;;;;;;;;;5116985;27;20043;-52
2022/07/10 14:10:33;;;;;;;2.33;0.82;;;;;;;;;;5089505;28;20046;-52
2022/07/10 14:12:58;;;;;;;1.52;0.63;;;;;;;;;;5112928;27;20047;-53
2022/07/10 14:15:24;;;;;;;2.17;1.27;;;;;;;;;;5114498;27;20046;-55
2022/07/10 14:17:50;;;;;;;1.77;1.10;;;;;;;;;;5115652;27;20055;-52
2022/07/10 14:20:15;;;;;;;1.65;0.60;;;;;;;;;;5116118;28;20093;-53
2022/07/10 14:22:40;;;;;;;0.57;0.52;;;;;;;;;;5116417;27;20067;-51
2022/07/10 14:25:08;;;;;;;1.55;0.77;;;;;;;;;;5116295;27;20035;-55
2022/07/10 14:27:34;;;;;;;1.92;1.33;;;;;;;;;;5116874;27;20040;-54
2022/07/10 14:29:59;;;;;;;1.67;1.48;;;;;;;;;;5096891;27;20050;-55
2022/07/10 14:32:24;;;;;;;2.28;0.85;;;;;;;;;;5117043;27;20044;-55
2022/07/10 14:34:50;;;;;;;1.80;1.20;;;;;;;;;;5115617;28;20054;-53
2022/07/10 14:37:15;;;;;;;1.30;0.70;;;;;;;;;;5113681;27;20194;-56
2022/07/10 14:39:40;;;;;;;2.13;1.17;;;;;;;;;;5117188;27;20052;-55
2022/07/10 14:42:06;;;;;;;1.58;1.13;;;;;;;;;;5117477;27;20051;-50
2022/07/10 14:44:34;;;;;;;1.17;0.57;;;;;;;;;;5115439;27;20044;-51
2022/07/10 14:46:59;;;;;;;8.02;0.85;;;;;;;;;;5115816;27;20091;-50
2022/07/10 14:49:25;;;;;;;0.68;0.57;;;;;;;;;;5114004;27;20039;-49
2022/07/10 14:51:51;;;;;;;1.92;1.00;;;;;;;;;;5114302;27;20043;-51